sensor_id;sensor_type;location;lat;lon;timestamp;P1;durP1;ratioP1;P2;durP2;ratioP2
31010;SDS011;26395;53.412;19.598;2022-12-07T00:07:44;228.70;;;102.50;;
31010;SDS011;26395;53.412;19.598;2022-12-07T00:22:47;137.60;;;51.30;;
31010;SDS011;26395;53.412;19.598;2022-12-07T00:37:50;122.80;;;50.00;;
31010;SDS011;26395;53.412;19.598;2022-12-07T00:52:54;305.10;;;115.00;;
31010;SDS011;26395;53.412;19.598;2022-12-07T01:07:57;292.30;;;116.20;;
31010;SDS011;26395;53.412;19.598;2022-12-07T01:23:01;190.90;;;75.40;;
31010;SDS011;26395;53.412;19.598;2022-12-07T01:38:04;298.90;;;106.20;;
31010;SDS011;26395;53.412;19.598;2022-12-07T01:53:08;248.00;;;83.70;;
31010;SDS011;26395;53.412;19.598;2022-12-07T02:08:12;185.70;;;58.90;;
31010;SDS011;26395;53.412;19.598;2022-12-07T02:38:31;128.50;;;54.80;;
31010;SDS011;26395;53.412;19.598;2022-12-07T02:53:42;69.70;;;28.70;;
31010;SDS011;26395;53.412;19.598;2022-12-07T03:24:00;15.60;;;7.70;;
31010;SDS011;26395;53.412;19.598;2022-12-07T03:39:22;14.30;;;7.20;;
31010;SDS011;26395;53.412;19.598;2022-12-07T03:54:34;12.00;;;7.10;;
31010;SDS011;26395;53.412;19.598;2022-12-07T04:09:42;17.40;;;10.00;;
31010;SDS011;26395;53.412;19.598;2022-12-07T04:24:45;16.20;;;9.60;;
31010;SDS011;26395;53.412;19.598;2022-12-07T04:39:49;14.10;;;8.00;;
31010;SDS011;26395;53.412;19.598;2022-12-07T04:54:52;12.60;;;8.30;;
31010;SDS011;26395;53.412;19.598;2022-12-07T05:09:55;33.80;;;13.80;;
31010;SDS011;26395;53.412;19.598;2022-12-07T05:24:59;42.00;;;15.50;;
31010;SDS011;26395;53.412;19.598;2022-12-07T05:40:03;30.90;;;13.50;;
31010;SDS011;26395;53.412;19.598;2022-12-07T05:55:07;31.80;;;13.20;;
31010;SDS011;26395;53.412;19.598;2022-12-07T06:10:11;177.50;;;62.90;;
31010;SDS011;26395;53.412;19.598;2022-12-07T06:25:14;33.60;;;17.90;;
31010;SDS011;26395;53.412;19.598;2022-12-07T06:40:18;23.80;;;12.90;;
31010;SDS011;26395;53.412;19.598;2022-12-07T06:55:21;26.30;;;13.90;;
31010;SDS011;26395;53.412;19.598;2022-12-07T07:10:25;55.80;;;20.90;;
31010;SDS011;26395;53.412;19.598;2022-12-07T07:25:28;51.40;;;29.30;;
31010;SDS011;26395;53.412;19.598;2022-12-07T07:40:32;45.90;;;26.20;;
31010;SDS011;26395;53.412;19.598;2022-12-07T07:55:35;45.20;;;22.80;;
31010;SDS011;26395;53.412;19.598;2022-12-07T08:10:39;27.40;;;15.60;;
31010;SDS011;26395;53.412;19.598;2022-12-07T08:25:42;19.20;;;10.00;;
31010;SDS011;26395;53.412;19.598;2022-12-07T08:40:55;213.60;;;66.10;;
31010;SDS011;26395;53.412;19.598;2022-12-07T08:56:00;48.20;;;17.90;;
31010;SDS011;26395;53.412;19.598;2022-12-07T09:11:03;74.40;;;28.80;;
31010;SDS011;26395;53.412;19.598;2022-12-07T09:26:07;20.10;;;10.30;;
31010;SDS011;26395;53.412;19.598;2022-12-07T09:41:12;20.80;;;10.50;;
31010;SDS011;26395;53.412;19.598;2022-12-07T09:56:16;25.70;;;15.50;;
31010;SDS011;26395;53.412;19.598;2022-12-07T10:11:21;163.60;;;87.80;;
31010;SDS011;26395;53.412;19.598;2022-12-07T10:41:31;20.90;;;12.00;;
31010;SDS011;26395;53.412;19.598;2022-12-07T11:27:43;60.60;;;39.80;;
31010;SDS011;26395;53.412;19.598;2022-12-07T11:43:20;30.30;;;15.90;;
31010;SDS011;26395;53.412;19.598;2022-12-07T12:29:37;35.40;;;17.80;;
31010;SDS011;26395;53.412;19.598;2022-12-07T12:45:02;39.10;;;18.10;;
31010;SDS011;26395;53.412;19.598;2022-12-07T13:15:31;73.40;;;29.10;;
31010;SDS011;26395;53.412;19.598;2022-12-07T13:46:12;33.10;;;19.10;;
31010;SDS011;26395;53.412;19.598;2022-12-07T14:01:20;37.60;;;19.20;;
31010;SDS011;26395;53.412;19.598;2022-12-07T14:16:31;43.80;;;27.80;;
31010;SDS011;26395;53.412;19.598;2022-12-07T14:31:34;33.60;;;16.60;;
31010;SDS011;26395;53.412;19.598;2022-12-07T14:46:38;51.40;;;23.40;;
31010;SDS011;26395;53.412;19.598;2022-12-07T15:01:42;56.80;;;23.30;;
31010;SDS011;26395;53.412;19.598;2022-12-07T15:16:46;36.30;;;19.00;;
31010;SDS011;26395;53.412;19.598;2022-12-07T15:32:09;27.90;;;14.70;;
31010;SDS011;26395;53.412;19.598;2022-12-07T15:47:13;26.50;;;14.90;;
31010;SDS011;26395;53.412;19.598;2022-12-07T16:02:16;27.30;;;14.40;;
31010;SDS011;26395;53.412;19.598;2022-12-07T16:17:20;47.40;;;25.50;;
31010;SDS011;26395;53.412;19.598;2022-12-07T16:32:23;33.90;;;17.40;;
31010;SDS011;26395;53.412;19.598;2022-12-07T16:47:26;24.00;;;13.00;;
31010;SDS011;26395;53.412;19.598;2022-12-07T17:02:30;64.20;;;29.50;;
31010;SDS011;26395;53.412;19.598;2022-12-07T17:17:33;30.20;;;15.40;;
31010;SDS011;26395;53.412;19.598;2022-12-07T17:32:37;28.20;;;15.60;;
31010;SDS011;26395;53.412;19.598;2022-12-07T17:47:40;69.20;;;31.70;;
31010;SDS011;26395;53.412;19.598;2022-12-07T18:02:44;59.80;;;21.30;;
31010;SDS011;26395;53.412;19.598;2022-12-07T18:17:47;49.00;;;18.30;;
31010;SDS011;26395;53.412;19.598;2022-12-07T18:32:52;53.50;;;21.60;;
31010;SDS011;26395;53.412;19.598;2022-12-07T18:47:55;71.60;;;28.10;;
31010;SDS011;26395;53.412;19.598;2022-12-07T19:02:58;71.90;;;29.40;;
31010;SDS011;26395;53.412;19.598;2022-12-07T19:18:02;29.30;;;14.10;;
31010;SDS011;26395;53.412;19.598;2022-12-07T19:33:06;31.90;;;14.40;;
31010;SDS011;26395;53.412;19.598;2022-12-07T19:48:09;56.00;;;20.10;;
31010;SDS011;26395;53.412;19.598;2022-12-07T20:03:12;34.40;;;14.80;;
31010;SDS011;26395;53.412;19.598;2022-12-07T20:18:16;24.30;;;13.00;;
31010;SDS011;26395;53.412;19.598;2022-12-07T20:33:19;35.60;;;15.20;;
31010;SDS011;26395;53.412;19.598;2022-12-07T20:48:23;22.60;;;10.10;;
31010;SDS011;26395;53.412;19.598;2022-12-07T21:03:26;20.30;;;8.70;;
31010;SDS011;26395;53.412;19.598;2022-12-07T21:18:29;16.00;;;9.20;;
31010;SDS011;26395;53.412;19.598;2022-12-07T21:33:33;14.40;;;8.70;;
31010;SDS011;26395;53.412;19.598;2022-12-07T21:48:51;15.00;;;7.50;;
31010;SDS011;26395;53.412;19.598;2022-12-07T22:03:56;14.30;;;7.90;;
31010;SDS011;26395;53.412;19.598;2022-12-07T22:19:00;11.20;;;6.20;;
31010;SDS011;26395;53.412;19.598;2022-12-07T22:34:03;11.20;;;6.50;;
31010;SDS011;26395;53.412;19.598;2022-12-07T22:49:06;11.50;;;5.90;;
31010;SDS011;26395;53.412;19.598;2022-12-07T23:04:10;12.90;;;6.60;;
31010;SDS011;26395;53.412;19.598;2022-12-07T23:19:13;44.90;;;17.00;;
31010;SDS011;26395;53.412;19.598;2022-12-07T23:34:17;15.70;;;9.00;;
31010;SDS011;26395;53.412;19.598;2022-12-07T23:49:20;19.10;;;10.10;;
